createdAt,value
2018-05-05T00:00:23.229Z,73.80
2018-05-05T00:02:51.521Z,73.60
2018-05-05T00:05:19.037Z,73.60
2018-05-05T00:07:48.070Z,73.60
2018-05-05T00:10:15.594Z,73.50
2018-05-05T00:12:43.124Z,73.70
2018-05-05T00:15:10.649Z,73.70
2018-05-05T00:17:38.162Z,73.50
2018-05-05T00:20:05.689Z,73.30
2018-05-05T00:22:33.205Z,73.20
2018-05-05T00:25:01.511Z,73.30
2018-05-05T00:27:29.030Z,73.20
2018-05-05T00:29:57.317Z,73.70
2018-05-05T00:32:25.601Z,73.90
2018-05-05T00:34:53.882Z,73.90
2018-05-05T00:37:22.178Z,73.90
2018-05-05T00:39:49.689Z,73.80
2018-05-05T00:42:17.212Z,74.00
2018-05-05T00:44:44.729Z,74.10
2018-05-05T00:47:13.022Z,73.80
2018-05-05T00:49:40.554Z,73.70
2018-05-05T00:52:08.914Z,74.30
2018-05-05T00:54:48.225Z,73.30
2018-05-05T00:57:15.746Z,73.10
2018-05-05T00:59:44.226Z,73.10
2018-05-05T01:02:11.750Z,72.90
2018-05-05T01:04:39.281Z,72.80
2018-05-05T01:07:06.808Z,72.60
2018-05-05T01:09:34.333Z,72.50
2018-05-05T01:12:01.857Z,72.30
2018-05-05T01:14:29.390Z,72.90
2018-05-05T01:16:56.909Z,72.00
2018-05-05T01:19:24.442Z,72.10
2018-05-05T01:21:51.965Z,71.90
2018-05-05T01:24:19.484Z,71.70
2018-05-05T01:26:47.009Z,71.80
2018-05-05T01:29:14.525Z,71.20
2018-05-05T01:31:42.813Z,71.90
2018-05-05T01:34:10.329Z,71.80
2018-05-05T01:36:37.857Z,72.10
2018-05-05T01:39:05.373Z,72.30
2018-05-05T01:41:33.657Z,72.80
2018-05-05T01:44:01.951Z,72.80
2018-05-05T01:46:29.481Z,72.70
2018-05-05T01:48:57.769Z,72.70
2018-05-05T01:51:26.055Z,72.30
2018-05-05T01:53:53.585Z,72.30
2018-05-05T01:56:21.886Z,72.10
2018-05-05T01:58:49.522Z,72.00
2018-05-05T02:01:17.040Z,72.20
2018-05-05T02:03:44.567Z,72.20
2018-05-05T02:06:12.086Z,72.10
2018-05-05T02:08:39.610Z,72.10
2018-05-05T02:11:07.165Z,72.00
2018-05-05T02:13:34.682Z,72.20
2018-05-05T02:16:02.965Z,72.40
2018-05-05T02:18:31.257Z,72.00
2018-05-05T02:20:58.786Z,72.00
2018-05-05T02:23:26.301Z,71.80
2018-05-05T02:25:53.837Z,71.70
2018-05-05T02:28:21.350Z,71.60
2018-05-05T02:30:48.879Z,71.60
2018-05-05T02:33:16.397Z,71.50
2018-05-05T02:35:43.929Z,71.50
2018-05-05T02:38:11.481Z,71.60
2018-05-05T02:40:39.007Z,71.30
2018-05-05T02:43:06.517Z,71.50
2018-05-05T02:45:34.809Z,71.90
2018-05-05T02:48:03.103Z,71.40
2018-05-05T02:50:30.646Z,71.30
2018-05-05T02:52:58.932Z,71.60
2018-05-05T02:55:26.469Z,72.30
2018-05-05T02:57:53.990Z,72.30
2018-05-05T03:00:21.519Z,72.80
2018-05-05T03:02:49.141Z,72.90
2018-05-05T03:05:17.357Z,73.60
2018-05-05T03:07:44.877Z,73.40
2018-05-05T03:10:12.400Z,73.70
2018-05-05T03:12:39.926Z,74.00
2018-05-05T03:15:07.449Z,74.00
2018-05-05T03:17:34.979Z,74.10
2018-05-05T03:20:02.495Z,74.30
2018-05-05T03:22:30.787Z,74.50
2018-05-05T03:24:58.314Z,74.50
2018-05-05T03:27:25.825Z,74.40
2018-05-05T03:29:53.337Z,74.50
2018-05-05T03:32:21.630Z,74.60
2018-05-05T03:34:49.146Z,74.60
2018-05-05T03:37:16.665Z,74.80
2018-05-05T03:39:44.185Z,74.80
2018-05-05T03:42:12.485Z,74.10
2018-05-05T03:44:40.005Z,74.60
2018-05-05T03:47:07.523Z,74.60
2018-05-05T03:49:35.047Z,74.70
2018-05-05T03:52:03.345Z,74.80
2018-05-05T03:54:30.866Z,74.80
2018-05-05T03:56:58.381Z,75.20
2018-05-05T03:59:37.862Z,75.80
2018-05-05T04:02:17.278Z,76.00
2018-05-05T04:04:54.293Z,75.30
2018-05-05T04:07:22.586Z,75.10
2018-05-05T04:09:50.898Z,75.00
2018-05-05T04:12:18.397Z,75.00
2018-05-05T04:14:45.913Z,75.30
2018-05-05T04:17:13.434Z,76.20
2018-05-05T04:19:41.723Z,75.90
2018-05-05T04:22:09.245Z,75.90
2018-05-05T04:24:36.760Z,76.10
2018-05-05T04:27:04.281Z,76.20
2018-05-05T04:29:32.558Z,76.10
2018-05-05T04:32:00.845Z,75.90
2018-05-05T04:34:29.121Z,75.80
2018-05-05T04:36:56.645Z,75.80
2018-05-05T04:39:24.171Z,75.70
2018-05-05T04:41:51.699Z,75.50
2018-05-05T04:44:19.985Z,74.60
2018-05-05T04:46:47.509Z,74.60
2018-05-05T04:49:15.042Z,74.50
2018-05-05T04:51:42.582Z,74.30
2018-05-05T04:54:10.094Z,73.70
2018-05-05T04:56:38.385Z,72.80
2018-05-05T04:59:06.687Z,72.90
2018-05-05T05:01:34.225Z,72.90
2018-05-05T05:04:01.743Z,73.00
2018-05-05T05:06:29.265Z,73.30
2018-05-05T05:08:56.789Z,73.60
2018-05-05T05:11:25.078Z,72.20
2018-05-05T05:13:52.606Z,72.20
2018-05-05T05:16:20.122Z,71.70
2018-05-05T05:18:47.652Z,70.70
2018-05-05T05:21:15.928Z,70.40
2018-05-05T05:23:43.543Z,70.40
2018-05-05T05:26:10.986Z,70.10
2018-05-05T05:28:38.508Z,69.80
2018-05-05T05:31:06.026Z,68.70
2018-05-05T05:33:33.542Z,68.30
2018-05-05T05:36:01.079Z,68.60
2018-05-05T05:38:29.358Z,68.10
2018-05-05T05:40:56.874Z,68.10
2018-05-05T05:43:24.395Z,67.70
2018-05-05T05:45:51.923Z,67.50
2018-05-05T05:48:20.205Z,68.60
2018-05-05T05:50:48.494Z,67.70
2018-05-05T05:53:16.009Z,67.60
2018-05-05T05:55:43.590Z,67.20
2018-05-05T05:58:11.061Z,66.70
2018-05-05T06:00:39.341Z,66.20
2018-05-05T06:03:06.893Z,66.20
2018-05-05T06:05:35.170Z,66.20
2018-05-05T06:08:03.451Z,66.20
2018-05-05T06:10:31.746Z,66.70
2018-05-05T06:12:59.257Z,66.50
2018-05-05T06:15:26.769Z,66.60
2018-05-05T06:17:54.285Z,66.80
2018-05-05T06:20:22.581Z,66.00
2018-05-05T06:22:50.874Z,66.20
2018-05-05T06:25:18.387Z,66.20
2018-05-05T06:27:45.921Z,66.80
2018-05-05T06:30:13.429Z,66.90
2018-05-05T06:32:41.736Z,67.20
2018-05-05T06:35:11.009Z,67.20
2018-05-05T06:37:39.298Z,66.90
2018-05-05T06:40:06.825Z,66.80
2018-05-05T06:42:34.353Z,66.30
2018-05-05T06:45:01.870Z,66.70
2018-05-05T06:47:29.394Z,66.10
2018-05-05T06:49:56.917Z,65.70
2018-05-05T06:52:24.465Z,65.00
2018-05-05T06:54:51.987Z,64.30
2018-05-05T06:57:20.293Z,64.40
2018-05-05T06:59:47.809Z,64.40
2018-05-05T07:02:16.114Z,64.50
2018-05-05T07:04:44.413Z,64.40
2018-05-05T07:07:11.929Z,64.40
2018-05-05T07:09:40.217Z,64.40
2018-05-05T07:12:08.501Z,64.80
2018-05-05T07:14:36.810Z,64.00
2018-05-05T07:17:04.338Z,64.00
2018-05-05T07:19:31.866Z,64.40
2018-05-05T07:21:59.399Z,65.00
2018-05-05T07:24:26.919Z,64.40
2018-05-05T07:26:54.437Z,64.00
2018-05-05T07:29:22.818Z,63.20
2018-05-05T07:31:50.348Z,62.60
2018-05-05T07:34:17.875Z,62.60
2018-05-05T07:36:45.390Z,63.40
2018-05-05T07:39:12.918Z,63.70
2018-05-05T07:41:40.442Z,63.50
2018-05-05T07:44:08.727Z,63.60
2018-05-05T07:46:36.274Z,63.60
2018-05-05T07:49:04.558Z,64.00
2018-05-05T07:51:32.837Z,64.00
2018-05-05T07:54:00.362Z,64.00
2018-05-05T07:56:27.895Z,64.20
2018-05-05T07:58:55.417Z,63.80
2018-05-05T08:01:22.973Z,63.90
2018-05-05T08:03:50.501Z,63.10
2018-05-05T08:06:18.031Z,62.50
2018-05-05T08:08:45.562Z,64.00
2018-05-05T08:11:13.081Z,64.60
2018-05-05T08:13:40.603Z,62.40
2018-05-05T08:16:08.125Z,63.10
2018-05-05T08:18:36.402Z,62.60
2018-05-05T08:21:04.687Z,61.80
2018-05-05T08:23:32.209Z,61.80
2018-05-05T08:25:59.764Z,61.40
2018-05-05T08:28:27.285Z,61.70
2018-05-05T08:30:54.805Z,61.70
2018-05-05T08:33:23.093Z,60.50
2018-05-05T08:35:50.610Z,60.50
2018-05-05T08:38:18.133Z,61.30
2018-05-05T08:40:45.657Z,61.50
2018-05-05T08:43:13.945Z,60.20
2018-05-05T08:45:42.229Z,60.20
2018-05-05T08:48:09.750Z,60.10
2018-05-05T08:50:38.049Z,59.90
2018-05-05T08:53:06.321Z,60.10
2018-05-05T08:55:34.609Z,58.60
2018-05-05T08:58:02.895Z,58.90
2018-05-05T09:00:30.417Z,59.00
2018-05-05T09:02:58.711Z,58.50
2018-05-05T09:05:26.996Z,58.00
2018-05-05T09:07:55.281Z,57.60
2018-05-05T09:10:22.798Z,57.50
2018-05-05T09:12:50.385Z,58.10
2018-05-05T09:15:18.694Z,58.30
2018-05-05T09:17:46.201Z,58.40
2018-05-05T09:20:13.741Z,57.50
2018-05-05T09:22:41.262Z,56.90
2018-05-05T09:25:08.774Z,56.40
2018-05-05T09:27:36.301Z,56.60
2018-05-05T09:30:03.879Z,57.40
2018-05-05T09:32:32.120Z,57.90
2018-05-05T09:34:59.629Z,57.90
2018-05-05T09:37:27.222Z,57.90
2018-05-05T09:39:54.742Z,58.10
2018-05-05T09:42:22.270Z,58.20
2018-05-05T09:44:49.781Z,57.10
2018-05-05T09:47:18.067Z,57.40
2018-05-05T09:49:46.351Z,58.90
2018-05-05T09:52:14.626Z,59.10
2018-05-05T09:54:42.919Z,57.60
2018-05-05T09:57:10.462Z,57.60
2018-05-05T09:59:37.994Z,57.30
2018-05-05T10:02:05.501Z,56.10
2018-05-05T10:04:33.019Z,55.20
2018-05-05T10:07:00.534Z,55.50
2018-05-05T10:09:28.054Z,55.80
2018-05-05T10:11:56.342Z,55.50
2018-05-05T10:14:23.857Z,55.50
2018-05-05T10:16:51.390Z,55.00
2018-05-05T10:19:18.901Z,56.40
2018-05-05T10:21:47.185Z,57.40
2018-05-05T10:24:14.706Z,57.30
2018-05-05T10:26:42.223Z,57.10
2018-05-05T10:29:09.758Z,56.00
2018-05-05T10:31:38.052Z,56.50
2018-05-05T10:34:05.567Z,56.50
2018-05-05T10:36:34.599Z,56.50
2018-05-05T10:39:02.111Z,56.40
2018-05-05T10:41:29.634Z,55.30
2018-05-05T10:43:57.146Z,54.90
2018-05-05T10:46:24.666Z,57.80
2018-05-05T10:48:52.182Z,58.00
2018-05-05T10:51:20.547Z,54.50
2018-05-05T10:53:47.994Z,54.30
2018-05-05T10:56:15.517Z,56.00
2018-05-05T10:58:43.050Z,56.90
2018-05-05T11:01:10.565Z,54.20
2018-05-05T11:03:38.078Z,54.10
2018-05-05T11:06:05.609Z,52.30
2018-05-05T11:08:33.890Z,53.30
2018-05-05T11:11:02.177Z,52.40
2018-05-05T11:13:29.688Z,52.30
2018-05-05T11:15:57.229Z,52.10
2018-05-05T11:18:24.741Z,52.50
2018-05-05T11:20:53.027Z,51.50
2018-05-05T11:23:20.541Z,51.50
2018-05-05T11:25:48.071Z,51.10
2018-05-05T11:28:15.590Z,51.60
2018-05-05T11:30:43.870Z,51.10
2018-05-05T11:33:12.166Z,51.70
2018-05-05T11:35:39.680Z,51.60
2018-05-05T11:38:07.202Z,49.90
2018-05-05T11:40:34.709Z,49.60
2018-05-05T11:43:02.993Z,49.60
2018-05-05T11:45:31.273Z,48.70
2018-05-05T11:47:59.558Z,48.20
2018-05-05T11:50:27.847Z,50.50
2018-05-05T11:52:55.377Z,50.50
2018-05-05T11:55:23.653Z,48.60
2018-05-05T11:57:51.940Z,49.20
2018-05-05T12:00:20.226Z,48.30
2018-05-05T12:02:47.754Z,48.30
2018-05-05T12:05:15.266Z,49.90
2018-05-05T12:07:42.785Z,47.10
2018-05-05T12:10:11.070Z,46.00
2018-05-05T12:12:39.342Z,45.40
2018-05-05T12:15:07.625Z,46.80
2018-05-05T12:17:35.902Z,45.20
2018-05-05T12:20:04.196Z,46.40
2018-05-05T12:22:31.715Z,46.50
2018-05-05T12:24:59.238Z,46.90
2018-05-05T12:27:26.754Z,45.70
2018-05-05T12:29:55.130Z,44.80
2018-05-05T12:32:22.576Z,44.80
2018-05-05T12:34:50.861Z,43.60
2018-05-05T12:37:19.155Z,44.40
2018-05-05T12:39:46.666Z,44.30
2018-05-05T12:42:14.186Z,44.10
2018-05-05T12:44:41.864Z,44.20
2018-05-05T12:47:09.377Z,43.60
2018-05-05T12:49:37.676Z,45.60
2018-05-05T12:52:05.189Z,45.50
2018-05-05T12:54:32.703Z,43.80
2018-05-05T12:57:00.225Z,44.60
2018-05-05T12:59:28.519Z,42.90
2018-05-05T13:01:56.051Z,42.90
2018-05-05T13:04:25.073Z,43.30
2018-05-05T13:06:52.596Z,43.20
2018-05-05T13:09:20.129Z,43.50
2018-05-05T13:11:47.989Z,41.80
2018-05-05T13:14:15.601Z,42.00
2018-05-05T13:16:43.885Z,40.50
2018-05-05T13:19:12.177Z,41.10
2018-05-05T13:21:39.698Z,41.10
2018-05-05T13:24:08.086Z,42.10
2018-05-05T13:26:36.431Z,41.60
2018-05-05T13:29:03.958Z,41.60
2018-05-05T13:31:31.495Z,41.60
2018-05-05T13:33:59.899Z,42.40
2018-05-05T13:36:27.421Z,42.30
2018-05-05T13:38:55.707Z,42.10
2018-05-05T13:41:23.999Z,41.90
2018-05-05T13:43:51.518Z,41.80
2018-05-05T13:46:19.079Z,41.20
2018-05-05T13:48:46.600Z,42.00
2018-05-05T13:51:14.136Z,40.90
2018-05-05T13:53:41.673Z,41.40
2018-05-05T13:56:09.961Z,40.00
2018-05-05T13:58:38.255Z,39.20
2018-05-05T14:01:05.807Z,39.10
2018-05-05T14:03:33.339Z,39.20
2018-05-05T14:06:01.655Z,40.70
2018-05-05T14:08:29.190Z,40.60
2018-05-05T14:10:57.501Z,39.10
2018-05-05T14:13:25.030Z,39.10
2018-05-05T14:15:53.330Z,39.40
2018-05-05T14:18:20.849Z,39.40
2018-05-05T14:20:49.138Z,41.10
2018-05-05T14:23:17.418Z,39.90
2018-05-05T14:25:45.701Z,40.30
2018-05-05T14:28:13.221Z,40.20
2018-05-05T14:30:41.511Z,40.50
2018-05-05T14:33:09.030Z,40.50
2018-05-05T14:35:36.529Z,40.80
2018-05-05T14:38:04.046Z,39.50
2018-05-05T14:40:31.561Z,40.40
2018-05-05T14:42:59.839Z,41.00
2018-05-05T14:45:28.141Z,39.60
2018-05-05T14:47:56.954Z,39.60
2018-05-05T14:50:24.541Z,38.90
2018-05-05T14:52:52.050Z,38.00
2018-05-05T14:55:19.553Z,36.60
2018-05-05T14:57:47.835Z,36.70
2018-05-05T15:00:15.342Z,36.70
2018-05-05T15:02:42.885Z,36.60
2018-05-05T15:05:10.398Z,37.60
2018-05-05T15:07:37.916Z,38.20
2018-05-05T15:10:05.452Z,37.80
2018-05-05T15:12:33.725Z,35.90
2018-05-05T15:15:02.000Z,37.00
2018-05-05T15:17:30.302Z,36.90
2018-05-05T15:19:57.816Z,36.80
2018-05-05T15:22:25.326Z,36.50
2018-05-05T15:24:52.866Z,38.00
2018-05-05T15:27:20.402Z,37.60
2018-05-05T15:29:48.687Z,36.20
2018-05-05T15:32:16.210Z,36.00
2018-05-05T15:34:43.777Z,36.20
2018-05-05T15:37:11.296Z,35.70
2018-05-05T15:39:38.801Z,35.20
2018-05-05T15:42:06.311Z,35.80
2018-05-05T15:44:33.893Z,35.10
2018-05-05T15:47:02.115Z,35.10
2018-05-05T15:49:30.613Z,34.50
2018-05-05T15:51:58.122Z,34.40
2018-05-05T15:54:25.625Z,35.30
2018-05-05T15:56:53.984Z,34.00
2018-05-05T15:59:21.421Z,34.00
2018-05-05T16:01:48.955Z,33.90
2018-05-05T16:04:16.939Z,34.90
2018-05-05T16:06:44.464Z,34.30
2018-05-05T16:09:11.973Z,34.20
2018-05-05T16:11:39.539Z,33.40
2018-05-05T16:14:07.015Z,33.60
2018-05-05T16:16:35.286Z,34.30
2018-05-05T16:19:03.573Z,35.90
2018-05-05T16:21:31.855Z,35.50
2018-05-05T16:24:00.132Z,35.50
2018-05-05T16:26:28.428Z,37.70
2018-05-05T16:28:55.939Z,37.70
2018-05-05T16:31:23.477Z,37.70
2018-05-05T16:33:50.985Z,37.40
2018-05-05T16:36:18.500Z,37.80
2018-05-05T16:38:46.001Z,38.50
2018-05-05T16:41:13.518Z,38.90
2018-05-05T16:43:41.035Z,39.20
2018-05-05T16:46:08.569Z,38.80
2018-05-05T16:48:36.838Z,39.10
2018-05-05T16:51:05.119Z,39.80
2018-05-05T16:53:33.385Z,39.80
2018-05-05T16:56:01.679Z,40.00
2018-05-05T16:58:29.955Z,40.30
2018-05-05T17:00:58.238Z,41.30
2018-05-05T17:03:26.688Z,41.20
2018-05-05T17:05:54.969Z,41.80
2018-05-05T17:08:22.473Z,41.20
2018-05-05T17:10:49.985Z,41.50
2018-05-05T17:13:17.593Z,41.60
2018-05-05T17:15:45.101Z,42.50
2018-05-05T17:18:12.617Z,44.20
2018-05-05T17:20:40.127Z,44.20
2018-05-05T17:23:07.637Z,43.60
2018-05-05T17:25:35.141Z,44.20
2018-05-05T17:28:02.649Z,43.20
2018-05-05T17:30:30.158Z,43.90
2018-05-05T17:32:57.677Z,44.20
2018-05-05T17:35:25.194Z,45.50
2018-05-05T17:37:53.477Z,44.40
2018-05-05T17:40:21.750Z,44.10
2018-05-05T17:42:50.030Z,43.10
2018-05-05T17:45:17.610Z,43.10
2018-05-05T17:47:45.122Z,42.90
2018-05-05T17:50:12.623Z,43.40
2018-05-05T17:52:40.142Z,43.00
2018-05-05T17:55:07.654Z,43.00
2018-05-05T17:57:35.167Z,43.30
2018-05-05T18:00:03.449Z,43.50
2018-05-05T18:02:31.721Z,43.60
2018-05-05T18:05:00.009Z,43.30
2018-05-05T18:07:28.289Z,43.20
2018-05-05T18:09:55.794Z,43.20
2018-05-05T18:12:23.301Z,43.30
2018-05-05T18:14:51.569Z,44.20
2018-05-05T18:17:19.845Z,44.60
2018-05-05T18:19:48.122Z,45.80
2018-05-05T18:22:16.394Z,47.30
2018-05-05T18:24:45.130Z,48.30
2018-05-05T18:27:12.641Z,48.30
2018-05-05T18:29:40.910Z,49.30
2018-05-05T18:32:08.423Z,49.30
2018-05-05T18:34:36.013Z,49.50
2018-05-05T18:37:03.501Z,49.40
2018-05-05T18:39:31.776Z,49.10
2018-05-05T18:42:00.071Z,49.40
2018-05-05T18:44:27.574Z,49.40
2018-05-05T18:46:55.073Z,49.40
2018-05-05T18:49:23.348Z,48.90
2018-05-05T18:51:51.630Z,49.20
2018-05-05T18:54:19.902Z,49.70
2018-05-05T18:56:48.173Z,49.80
2018-05-05T18:59:16.450Z,50.00
2018-05-05T19:01:44.717Z,50.30
2018-05-05T19:04:12.995Z,51.20
2018-05-05T19:06:41.270Z,50.50
2018-05-05T19:09:09.572Z,50.30
2018-05-05T19:11:37.090Z,50.30
2018-05-05T19:14:04.606Z,50.20
2018-05-05T19:16:32.110Z,50.50
2018-05-05T19:19:01.133Z,51.30
2018-05-05T19:21:29.409Z,50.90
2018-05-05T19:23:57.679Z,50.80
2018-05-05T19:26:25.990Z,50.50
2018-05-05T19:28:53.504Z,50.40
2018-05-05T19:31:21.794Z,51.60
2018-05-05T19:33:50.057Z,50.90
2018-05-05T19:36:17.562Z,50.80
2018-05-05T19:38:45.122Z,50.40
2018-05-05T19:41:13.359Z,50.90
2018-05-05T19:43:41.642Z,51.00
2018-05-05T19:46:10.022Z,50.90
2018-05-05T19:48:38.309Z,50.60
2018-05-05T19:51:05.814Z,50.60
2018-05-05T19:53:33.328Z,50.20
2018-05-05T19:56:00.853Z,49.60
2018-05-05T19:58:29.126Z,49.90
2018-05-05T20:00:57.401Z,50.00
2018-05-05T20:03:25.677Z,49.40
2018-05-05T20:05:53.961Z,49.10
2018-05-05T20:08:22.241Z,49.30
2018-05-05T20:10:49.317Z,48.70
2018-05-05T20:13:16.867Z,48.40
2018-05-05T20:15:44.385Z,48.10
2018-05-05T20:18:11.914Z,47.90
2018-05-05T20:20:39.442Z,48.60
2018-05-05T20:23:07.723Z,49.80
2018-05-05T20:25:35.238Z,49.80
2018-05-05T20:28:02.755Z,49.90
2018-05-05T20:30:30.267Z,49.80
2018-05-05T20:32:58.553Z,50.00
2018-05-05T20:35:26.847Z,50.10
2018-05-05T20:37:54.357Z,50.00
2018-05-05T20:40:21.885Z,50.60
2018-05-05T20:42:49.389Z,50.50
2018-05-05T20:45:17.694Z,50.30
2018-05-05T20:47:45.978Z,50.10
2018-05-05T20:50:14.270Z,50.30
2018-05-05T20:52:41.781Z,50.20
2018-05-05T20:55:09.294Z,50.20
2018-05-05T20:57:36.814Z,50.20
2018-05-05T21:00:05.104Z,51.00
2018-05-05T21:02:33.377Z,51.20
2018-05-05T21:05:01.653Z,51.10
2018-05-05T21:07:29.939Z,51.10
2018-05-05T21:09:57.462Z,51.10
2018-05-05T21:12:24.985Z,51.10
2018-05-05T21:14:52.543Z,50.60
2018-05-05T21:17:20.054Z,50.50
2018-05-05T21:19:48.342Z,49.70
2018-05-05T21:22:16.645Z,50.10
2018-05-05T21:24:44.178Z,50.10
2018-05-05T21:27:12.460Z,49.00
2018-05-05T21:29:39.966Z,49.00
2018-05-05T21:32:07.473Z,49.40
2018-05-05T21:34:35.750Z,49.70
2018-05-05T21:37:04.029Z,50.20
2018-05-05T21:39:32.313Z,49.40
2018-05-05T21:41:59.827Z,49.40
2018-05-05T21:44:27.345Z,48.50
2018-05-05T21:46:54.861Z,49.10
2018-05-05T21:49:22.373Z,49.70
2018-05-05T21:51:49.905Z,50.20
2018-05-05T21:54:17.411Z,50.00
2018-05-05T21:56:44.922Z,49.90
2018-05-05T21:59:12.425Z,50.30
2018-05-05T22:01:39.951Z,50.80
2018-05-05T22:04:07.457Z,50.50
2018-05-05T22:06:34.973Z,49.80
2018-05-05T22:09:02.500Z,49.60
2018-05-05T22:11:30.772Z,48.10
2018-05-05T22:13:59.053Z,47.50
2018-05-05T22:16:27.329Z,47.80
2018-05-05T22:18:55.614Z,48.50
2018-05-05T22:21:23.890Z,48.40
2018-05-05T22:23:51.414Z,48.30
2018-05-05T22:26:18.925Z,48.10
2018-05-05T22:28:46.454Z,48.30
2018-05-05T22:31:14.733Z,48.40
2018-05-05T22:33:43.017Z,48.40
2018-05-05T22:36:11.294Z,48.60
2018-05-05T22:38:39.570Z,48.80
2018-05-05T22:41:07.855Z,48.60
2018-05-05T22:43:35.373Z,48.60
2018-05-05T22:46:02.889Z,48.70
2018-05-05T22:48:30.406Z,49.00
2018-05-05T22:50:58.684Z,49.90
2018-05-05T22:53:26.965Z,49.90
2018-05-05T22:55:55.250Z,49.60
2018-05-05T22:58:23.533Z,49.70
2018-05-05T23:00:51.046Z,49.70
2018-05-05T23:03:18.571Z,49.20
2018-05-05T23:05:46.102Z,48.70
2018-05-05T23:08:14.381Z,49.70
2018-05-05T23:10:42.663Z,48.80
2018-05-05T23:13:10.177Z,48.80
2018-05-05T23:15:37.690Z,49.10
2018-05-05T23:18:05.214Z,49.20
2018-05-05T23:20:32.742Z,48.20
2018-05-05T23:23:00.253Z,47.70
2018-05-05T23:25:28.530Z,48.00
2018-05-05T23:27:56.813Z,48.20
2018-05-05T23:30:24.325Z,48.20
2018-05-05T23:32:51.842Z,47.40
2018-05-05T23:35:19.354Z,47.20
2018-05-05T23:37:46.869Z,47.60
2018-05-05T23:40:14.390Z,46.80
2018-05-05T23:42:42.666Z,47.40
2018-05-05T23:45:10.951Z,47.50
2018-05-05T23:47:39.225Z,46.90
2018-05-05T23:50:07.497Z,46.70
2018-05-05T23:52:35.778Z,45.90
2018-05-05T23:55:04.058Z,45.80
2018-05-05T23:57:32.337Z,45.50
2018-05-05T23:59:59.845Z,45.50
